createdAt,value
2023-04-23T00:01:51.365Z,28.20
2023-04-23T00:04:18.307Z,23.00
2023-04-23T00:06:47.054Z,25.90
2023-04-23T00:09:14.717Z,25.90
2023-04-23T00:11:41.895Z,28.00
2023-04-23T00:14:08.802Z,24.40
2023-04-23T00:16:36.216Z,23.70
2023-04-23T00:19:03.065Z,25.30
2023-04-23T00:21:29.814Z,24.90
2023-04-23T00:23:56.923Z,27.80
2023-04-23T00:26:23.624Z,21.60
2023-04-23T00:28:50.362Z,24.20
2023-04-23T00:31:18.087Z,24.70
2023-04-23T00:33:44.803Z,21.10
2023-04-23T00:36:11.812Z,25.70
2023-04-23T00:38:38.654Z,21.20
2023-04-23T00:41:06.602Z,21.70
2023-04-23T00:43:37.156Z,27.10
2023-04-23T00:46:04.081Z,33.10
2023-04-23T00:48:33.693Z,22.10
2023-04-23T00:51:03.366Z,29.50
2023-04-23T00:53:30.400Z,27.20
2023-04-23T00:55:57.335Z,27.40
2023-04-23T00:58:24.093Z,25.80
2023-04-23T01:00:51.473Z,21.70
2023-04-23T01:03:21.068Z,21.30
2023-04-23T01:05:47.984Z,23.70
2023-04-23T01:08:16.093Z,24.40
2023-04-23T01:10:43.774Z,22.90
2023-04-23T01:13:12.397Z,18.50
2023-04-23T01:15:39.074Z,20.40
2023-04-23T01:18:07.443Z,24.90
2023-04-23T01:20:34.813Z,20.60
2023-04-23T01:23:04.804Z,23.60
2023-04-23T01:25:31.528Z,22.60
2023-04-23T01:27:58.251Z,22.40
2023-04-23T01:30:26.512Z,19.70
2023-04-23T01:32:55.035Z,19.40
2023-04-23T01:35:22.336Z,16.90
2023-04-23T01:37:50.837Z,23.10
2023-04-23T01:40:19.576Z,21.40
2023-04-23T01:42:47.481Z,26.40
2023-04-23T01:45:14.176Z,26.40
2023-04-23T01:47:41.407Z,25.00
2023-04-23T01:50:08.690Z,27.20
2023-04-23T01:52:35.865Z,22.80
2023-04-23T01:55:02.727Z,22.60
2023-04-23T01:57:29.699Z,22.60
2023-04-23T02:00:10.643Z,24.90
2023-04-23T02:02:41.693Z,25.50
2023-04-23T02:05:13.680Z,29.90
2023-04-23T02:07:40.455Z,23.90
2023-04-23T02:10:07.822Z,25.20
2023-04-23T02:12:35.820Z,31.10
2023-04-23T02:15:02.769Z,23.60
2023-04-23T02:17:30.397Z,26.20
2023-04-23T02:19:57.169Z,26.60
2023-04-23T02:22:25.927Z,21.50
2023-04-23T02:24:52.637Z,15.80
2023-04-23T02:27:19.870Z,21.00
2023-04-23T02:29:47.615Z,23.40
2023-04-23T02:32:14.369Z,22.60
2023-04-23T02:34:41.665Z,25.40
2023-04-23T02:37:08.727Z,27.70
2023-04-23T02:39:35.554Z,33.30
2023-04-23T02:42:03.699Z,54.30
2023-04-23T02:44:30.914Z,54.80
2023-04-23T02:46:57.628Z,47.00
2023-04-23T02:49:24.412Z,53.00
2023-04-23T02:51:51.112Z,37.50
2023-04-23T02:54:18.005Z,53.80
2023-04-23T02:56:44.950Z,38.40
2023-04-23T02:59:11.728Z,50.70
2023-04-23T03:01:38.694Z,46.60
2023-04-23T03:04:05.999Z,44.20
2023-04-23T03:06:35.122Z,70.30
2023-04-23T03:09:01.873Z,66.40
2023-04-23T03:11:28.684Z,63.00
2023-04-23T03:13:56.106Z,63.00
2023-04-23T03:16:23.843Z,48.80
2023-04-23T03:18:50.717Z,42.50
2023-04-23T03:21:17.501Z,49.80
2023-04-23T03:23:44.165Z,45.60
2023-04-23T03:26:11.400Z,46.20
2023-04-23T03:28:38.170Z,33.30
2023-04-23T03:31:05.131Z,36.30
2023-04-23T03:33:32.525Z,37.80
2023-04-23T03:35:59.289Z,37.90
2023-04-23T03:38:28.856Z,37.80
2023-04-23T03:40:56.752Z,35.30
2023-04-23T03:43:23.591Z,31.20
2023-04-23T03:46:10.272Z,28.20
2023-04-23T03:48:38.867Z,32.80
2023-04-23T03:51:09.638Z,29.20
2023-04-23T03:53:45.632Z,31.50
2023-04-23T03:56:35.158Z,33.70
2023-04-23T03:59:12.750Z,35.50
2023-04-23T04:01:40.011Z,28.30
2023-04-23T04:04:07.044Z,30.50
2023-04-23T04:06:35.687Z,31.70
2023-04-23T04:09:02.501Z,29.50
2023-04-23T04:11:29.327Z,40.10
2023-04-23T04:13:55.981Z,32.10
2023-04-23T04:16:22.718Z,32.30
2023-04-23T04:18:49.548Z,25.60
2023-04-23T04:21:16.827Z,25.40
2023-04-23T04:23:44.644Z,29.50
2023-04-23T04:26:11.399Z,24.50
2023-04-23T04:28:39.165Z,28.50
2023-04-23T04:31:06.347Z,31.20
2023-04-23T04:33:35.153Z,29.90
2023-04-23T04:36:01.833Z,28.50
2023-04-23T04:38:29.255Z,30.00
2023-04-23T04:40:59.716Z,29.60
2023-04-23T04:43:26.491Z,28.50
2023-04-23T04:45:53.268Z,33.90
2023-04-23T04:48:20.097Z,29.10
2023-04-23T04:50:46.855Z,31.90
2023-04-23T04:53:13.505Z,31.10
2023-04-23T04:55:40.805Z,27.60
2023-04-23T04:58:07.696Z,29.70
2023-04-23T05:00:34.804Z,26.70
2023-04-23T05:03:01.585Z,34.50
2023-04-23T05:05:28.531Z,34.60
2023-04-23T05:07:58.608Z,36.80
2023-04-23T05:10:25.991Z,31.00
2023-04-23T05:12:52.781Z,44.30
2023-04-23T05:15:19.847Z,36.20
2023-04-23T05:17:46.584Z,41.80
2023-04-23T05:20:14.020Z,40.10
2023-04-23T05:22:41.309Z,34.10
2023-04-23T05:25:08.932Z,38.90
2023-04-23T05:27:36.013Z,37.60
2023-04-23T05:30:03.759Z,34.00
2023-04-23T05:32:31.152Z,35.00
2023-04-23T05:34:59.525Z,31.10
2023-04-23T05:37:26.311Z,28.70
2023-04-23T05:39:53.082Z,25.30
2023-04-23T05:42:19.848Z,25.60
2023-04-23T05:44:46.548Z,25.70
2023-04-23T05:47:13.886Z,25.90
2023-04-23T05:49:40.597Z,28.50
2023-04-23T05:52:07.237Z,29.40
2023-04-23T05:54:34.010Z,25.10
2023-04-23T05:57:00.793Z,25.00
2023-04-23T05:59:27.903Z,28.30
2023-04-23T06:01:54.708Z,31.00
2023-04-23T06:04:21.666Z,25.60
2023-04-23T06:06:48.798Z,27.50
2023-04-23T06:09:15.554Z,38.60
2023-04-23T06:11:43.400Z,32.60
2023-04-23T06:14:10.142Z,27.80
2023-04-23T06:16:36.851Z,29.40
2023-04-23T06:19:03.614Z,32.10
2023-04-23T06:21:30.812Z,30.00
2023-04-23T06:23:57.542Z,33.20
2023-04-23T06:26:24.214Z,36.00
2023-04-23T06:28:51.733Z,28.90
2023-04-23T06:31:57.362Z,32.80
2023-04-23T06:34:24.089Z,33.50
2023-04-23T06:36:51.403Z,24.90
2023-04-23T06:39:18.135Z,19.10
2023-04-23T06:41:44.910Z,20.80
2023-04-23T06:44:19.520Z,21.90
2023-04-23T06:46:52.036Z,19.80
2023-04-23T06:49:18.804Z,17.30
2023-04-23T06:51:45.600Z,19.30
2023-04-23T06:54:12.357Z,21.20
2023-04-23T06:56:39.065Z,13.70
2023-04-23T06:59:06.129Z,17.10
2023-04-23T07:01:34.429Z,17.00
2023-04-23T07:04:01.399Z,11.60
2023-04-23T07:06:28.259Z,12.00
2023-04-23T07:08:55.177Z,12.60
2023-04-23T07:11:21.914Z,11.00
2023-04-23T07:13:49.346Z,9.70
2023-04-23T07:16:16.112Z,10.50
2023-04-23T07:18:42.814Z,10.10
2023-04-23T07:21:09.503Z,10.40
2023-04-23T07:23:36.222Z,12.00
2023-04-23T07:26:03.329Z,13.60
2023-04-23T07:28:30.118Z,10.50
2023-04-23T07:30:57.326Z,9.10
2023-04-23T07:33:24.888Z,8.80
2023-04-23T07:35:52.090Z,5.70
2023-04-23T07:38:18.812Z,7.00
2023-04-23T07:40:45.567Z,8.40
2023-04-23T07:43:13.578Z,5.40
2023-04-23T07:45:40.347Z,7.40
2023-04-23T07:48:07.203Z,7.40
2023-04-23T07:50:34.766Z,6.10
2023-04-23T07:53:01.428Z,5.40
2023-04-23T07:55:28.312Z,9.50
2023-04-23T07:57:54.953Z,7.00
2023-04-23T08:00:21.703Z,6.00
2023-04-23T08:02:48.481Z,6.80
2023-04-23T08:05:15.488Z,12.20
2023-04-23T08:07:42.288Z,8.30
2023-04-23T08:10:09.166Z,6.60
2023-04-23T08:12:36.237Z,6.40
2023-04-23T08:15:03.350Z,9.90
2023-04-23T08:17:36.398Z,8.10
2023-04-23T08:20:06.047Z,7.30
2023-04-23T08:22:33.384Z,6.10
2023-04-23T08:25:00.453Z,5.70
2023-04-23T08:27:27.155Z,10.00
2023-04-23T08:29:53.803Z,8.40
2023-04-23T08:32:20.821Z,4.20
2023-04-23T08:34:47.732Z,5.10
2023-04-23T08:37:27.109Z,5.90
2023-04-23T08:39:57.845Z,4.50
2023-04-23T08:42:37.995Z,6.20
2023-04-23T08:45:05.263Z,7.70
2023-04-23T08:47:32.609Z,5.80
2023-04-23T08:49:59.378Z,6.40
2023-04-23T08:52:28.142Z,7.10
2023-04-23T08:55:00.655Z,5.50
2023-04-23T08:57:27.440Z,5.10
2023-04-23T08:59:54.758Z,7.80
2023-04-23T09:02:21.973Z,6.10
2023-04-23T09:04:50.852Z,7.10
2023-04-23T09:07:18.682Z,5.90
2023-04-23T09:09:46.697Z,4.00
2023-04-23T09:12:13.757Z,4.30
2023-04-23T09:14:40.746Z,8.90
2023-04-23T09:17:07.793Z,4.20
2023-04-23T09:19:34.655Z,5.00
2023-04-23T09:22:01.486Z,6.90
2023-04-23T09:24:28.375Z,4.60
2023-04-23T09:26:57.011Z,5.90
2023-04-23T09:29:26.053Z,3.50
2023-04-23T09:31:57.882Z,5.70
2023-04-23T09:34:24.903Z,4.80
2023-04-23T09:36:52.156Z,9.60
2023-04-23T09:39:21.637Z,3.30
2023-04-23T09:41:50.733Z,8.00
2023-04-23T09:44:18.267Z,5.10
2023-04-23T09:46:45.187Z,11.20
2023-04-23T09:49:12.456Z,4.50
2023-04-23T09:51:40.081Z,4.80
2023-04-23T09:54:13.082Z,5.50
2023-04-23T09:56:43.287Z,3.90
2023-04-23T09:59:46.198Z,4.80
2023-04-23T10:02:14.535Z,4.70
2023-04-23T10:04:41.367Z,4.40
2023-04-23T10:09:43.156Z,6.90
2023-04-23T10:12:21.091Z,6.20
2023-04-23T10:14:58.961Z,4.00
2023-04-23T10:17:25.668Z,4.40
2023-04-23T10:19:52.355Z,6.40
2023-04-23T10:22:20.147Z,5.20
2023-04-23T10:24:58.005Z,7.10
2023-04-23T10:27:40.412Z,5.50
2023-04-23T10:30:15.600Z,7.60
2023-04-23T10:32:42.853Z,4.50
2023-04-23T10:35:10.034Z,5.20
2023-04-23T10:37:37.161Z,7.30
2023-04-23T10:40:12.277Z,7.40
2023-04-23T10:42:40.173Z,11.60
2023-04-23T10:45:24.652Z,3.80
2023-04-23T10:47:54.307Z,4.70
2023-04-23T10:50:27.622Z,5.00
2023-04-23T10:52:56.287Z,8.40
2023-04-23T10:55:24.565Z,5.60
2023-04-23T10:58:01.924Z,7.90
2023-04-23T11:00:50.399Z,3.60
2023-04-23T11:03:42.558Z,5.40
2023-04-23T11:06:18.494Z,5.50
2023-04-23T11:08:53.274Z,4.70
2023-04-23T11:11:24.611Z,5.60
2023-04-23T11:13:52.705Z,6.30
2023-04-23T11:16:23.145Z,6.00
2023-04-23T11:18:56.928Z,6.60
2023-04-23T11:22:02.341Z,7.10
2023-04-23T11:24:36.656Z,8.50
2023-04-23T11:27:07.068Z,5.60
2023-04-23T11:29:34.592Z,9.40
2023-04-23T11:32:03.483Z,7.20
2023-04-23T11:34:32.743Z,3.80
2023-04-23T11:37:00.132Z,6.40
2023-04-23T11:39:27.678Z,4.40
2023-04-23T11:41:54.814Z,8.10
2023-04-23T11:44:21.834Z,5.00
2023-04-23T11:46:49.345Z,3.70
2023-04-23T11:49:16.546Z,7.20
2023-04-23T11:51:43.925Z,4.60
2023-04-23T11:54:11.593Z,6.90
2023-04-23T11:56:38.841Z,8.00
2023-04-23T11:59:05.530Z,5.60
2023-04-23T12:01:46.720Z,4.70
2023-04-23T12:04:19.024Z,7.80
2023-04-23T12:06:46.499Z,5.70
2023-04-23T12:09:13.980Z,9.50
2023-04-23T12:11:42.397Z,7.50
2023-04-23T12:14:09.990Z,8.00
2023-04-23T12:16:43.359Z,4.20
2023-04-23T12:19:13.528Z,7.60
2023-04-23T12:21:54.647Z,5.50
2023-04-23T12:24:23.149Z,6.30
2023-04-23T12:26:53.903Z,5.70
2023-04-23T12:29:22.240Z,4.60
2023-04-23T12:31:51.666Z,6.10
2023-04-23T12:34:21.484Z,5.90
2023-04-23T12:36:50.003Z,7.80
2023-04-23T12:39:20.681Z,6.80
2023-04-23T12:41:52.777Z,7.70
2023-04-23T12:44:20.316Z,20.90
2023-04-23T12:47:04.782Z,9.60
2023-04-23T12:49:32.088Z,16.10
2023-04-23T12:52:02.948Z,10.70
2023-04-23T12:54:36.647Z,5.50
2023-04-23T12:57:04.165Z,9.10
2023-04-23T12:59:31.032Z,6.30
2023-04-23T13:02:01.520Z,5.50
2023-04-23T13:04:29.593Z,8.30
2023-04-23T13:06:56.466Z,7.70
2023-04-23T13:09:26.289Z,4.10
2023-04-23T13:11:53.813Z,4.90
2023-04-23T13:14:23.333Z,6.70
2023-04-23T13:16:50.453Z,6.00
2023-04-23T13:19:17.825Z,9.90
2023-04-23T13:21:44.885Z,5.60
2023-04-23T13:24:11.604Z,6.10
2023-04-23T13:26:38.406Z,4.40
2023-04-23T13:29:05.489Z,5.70
2023-04-23T13:31:32.393Z,5.70
2023-04-23T13:34:02.186Z,4.10
2023-04-23T13:36:29.477Z,7.00
2023-04-23T13:38:56.126Z,6.30
2023-04-23T13:41:22.879Z,4.50
2023-04-23T13:43:49.908Z,5.10
2023-04-23T13:46:16.624Z,6.10
2023-04-23T13:48:43.355Z,3.70
2023-04-23T13:51:26.124Z,6.80
2023-04-23T13:53:57.773Z,7.00
2023-04-23T13:56:26.258Z,7.50
2023-04-23T13:59:08.075Z,5.80
2023-04-23T14:01:43.237Z,5.10
2023-04-23T14:04:11.679Z,8.10
2023-04-23T14:06:39.753Z,7.00
2023-04-23T14:09:06.855Z,15.70
2023-04-23T14:11:33.561Z,8.80
2023-04-23T14:14:00.633Z,20.00
2023-04-23T14:16:27.350Z,9.00
2023-04-23T14:18:54.476Z,10.00
2023-04-23T14:21:21.901Z,8.00
2023-04-23T14:23:56.007Z,6.20
2023-04-23T14:26:40.841Z,4.70
2023-04-23T14:29:35.795Z,6.60
2023-04-23T14:32:02.612Z,6.20
2023-04-23T14:34:29.787Z,3.60
2023-04-23T14:36:56.549Z,8.30
2023-04-23T14:39:25.139Z,5.60
2023-04-23T14:41:52.319Z,4.30
2023-04-23T14:44:22.747Z,4.40
2023-04-23T14:46:51.546Z,4.70
2023-04-23T14:49:20.281Z,6.10
2023-04-23T14:51:50.213Z,5.00
2023-04-23T14:54:17.005Z,6.00
2023-04-23T14:56:43.738Z,3.50
2023-04-23T14:59:10.496Z,4.60
2023-04-23T15:01:37.272Z,4.10
2023-04-23T15:04:05.086Z,5.00
2023-04-23T15:06:32.587Z,4.60
2023-04-23T15:08:59.318Z,4.40
2023-04-23T15:11:26.097Z,4.20
2023-04-23T15:14:03.008Z,3.40
2023-04-23T15:16:47.484Z,6.20
2023-04-23T15:19:17.159Z,5.40
2023-04-23T15:21:44.044Z,5.50
2023-04-23T15:24:10.855Z,6.00
2023-04-23T15:26:37.832Z,4.90
2023-04-23T15:29:07.980Z,4.50
2023-04-23T15:31:34.915Z,5.90
2023-04-23T15:34:01.698Z,8.00
2023-04-23T15:36:28.551Z,6.00
2023-04-23T15:38:55.350Z,6.20
2023-04-23T15:41:22.065Z,8.20
2023-04-23T15:43:49.806Z,7.30
2023-04-23T15:46:16.518Z,7.50
2023-04-23T15:48:43.459Z,6.90
2023-04-23T15:51:10.325Z,7.30
2023-04-23T15:53:37.037Z,8.40
2023-04-23T15:56:03.880Z,8.50
2023-04-23T15:58:31.119Z,8.80
2023-04-23T16:00:57.834Z,7.60
2023-04-23T16:03:24.713Z,6.60
2023-04-23T16:05:51.850Z,5.20
2023-04-23T16:08:38.429Z,4.60
2023-04-23T16:11:05.851Z,6.00
2023-04-23T16:13:32.919Z,8.20
2023-04-23T16:15:59.884Z,7.00
2023-04-23T16:18:26.619Z,8.30
2023-04-23T16:20:53.341Z,6.40
2023-04-23T16:23:21.133Z,4.60
2023-04-23T16:25:48.156Z,9.90
2023-04-23T16:28:16.194Z,5.10
2023-04-23T16:30:43.012Z,5.70
2023-04-23T16:33:09.970Z,7.30
2023-04-23T16:35:36.752Z,7.80
2023-04-23T16:38:03.687Z,9.00
2023-04-23T16:40:30.476Z,7.60
2023-04-23T16:42:57.192Z,7.90
2023-04-23T16:45:23.998Z,9.20
2023-04-23T16:47:50.829Z,10.40
2023-04-23T16:50:17.777Z,4.90
2023-04-23T16:52:44.851Z,10.60
2023-04-23T16:55:11.864Z,8.40
2023-04-23T16:57:38.476Z,11.70
2023-04-23T17:00:05.948Z,6.10
2023-04-23T17:02:33.905Z,7.10
2023-04-23T17:05:01.596Z,5.20
2023-04-23T17:07:28.560Z,7.60
2023-04-23T17:09:55.205Z,6.60
2023-04-23T17:12:22.223Z,11.50
2023-04-23T17:14:48.991Z,7.90
2023-04-23T17:17:15.712Z,9.60
2023-04-23T17:19:42.683Z,8.50
2023-04-23T17:22:10.245Z,7.30
2023-04-23T17:24:38.906Z,11.40
2023-04-23T17:27:06.219Z,9.00
2023-04-23T17:29:32.950Z,7.90
2023-04-23T17:32:02.215Z,12.20
2023-04-23T17:34:29.123Z,12.40
2023-04-23T17:36:56.175Z,12.80
2023-04-23T17:39:24.835Z,24.90
2023-04-23T17:41:51.568Z,25.50
2023-04-23T17:44:18.833Z,19.00
2023-04-23T17:46:46.172Z,22.40
2023-04-23T17:49:32.880Z,16.00
2023-04-23T17:51:59.727Z,12.80
2023-04-23T17:54:26.516Z,15.70
2023-04-23T17:56:53.677Z,12.70
2023-04-23T17:59:20.367Z,14.00
2023-04-23T18:01:48.698Z,14.20
2023-04-23T18:04:17.662Z,17.00
2023-04-23T18:06:44.997Z,24.00
2023-04-23T18:09:12.046Z,21.40
2023-04-23T18:11:39.333Z,23.70
2023-04-23T18:14:06.017Z,21.50
2023-04-23T18:16:32.799Z,22.50
2023-04-23T18:18:59.582Z,25.20
2023-04-23T18:21:26.915Z,32.90
2023-04-23T18:23:53.585Z,25.20
2023-04-23T18:26:20.491Z,28.20
2023-04-23T18:28:47.297Z,31.50
2023-04-23T18:31:14.467Z,23.70
2023-04-23T18:33:48.935Z,21.10
2023-04-23T18:36:29.004Z,24.40
2023-04-23T18:38:56.028Z,21.10
2023-04-23T18:41:23.101Z,33.40
2023-04-23T18:43:49.878Z,32.80
2023-04-23T18:46:16.731Z,49.90
2023-04-23T18:49:28.383Z,57.20
2023-04-23T18:51:55.122Z,47.00
2023-04-23T18:54:23.337Z,45.50
2023-04-23T18:56:50.541Z,41.30
2023-04-23T18:59:19.078Z,50.10
2023-04-23T19:01:47.527Z,57.10
2023-04-23T19:04:14.959Z,52.90
2023-04-23T19:06:42.024Z,56.10
2023-04-23T19:09:09.758Z,57.70
2023-04-23T19:11:37.612Z,53.70
2023-04-23T19:14:04.444Z,60.10
2023-04-23T19:16:31.777Z,65.90
2023-04-23T19:18:58.544Z,56.90
2023-04-23T19:21:25.528Z,63.00
2023-04-23T19:23:53.501Z,52.70
2023-04-23T19:26:20.217Z,43.40
2023-04-23T19:28:46.885Z,32.60
2023-04-23T19:31:13.578Z,33.20
2023-04-23T19:33:42.161Z,25.80
2023-04-23T19:36:09.620Z,26.80
2023-04-23T19:38:37.023Z,27.40
2023-04-23T19:41:03.661Z,32.00
2023-04-23T19:43:30.662Z,22.50
2023-04-23T19:45:57.384Z,34.20
2023-04-23T19:48:24.561Z,33.10
2023-04-23T19:50:51.274Z,31.80
2023-04-23T19:53:18.034Z,30.30
2023-04-23T19:55:44.791Z,31.20
2023-04-23T19:58:12.287Z,28.30
2023-04-23T20:00:39.776Z,24.10
2023-04-23T20:03:07.922Z,27.40
2023-04-23T20:05:34.864Z,18.80
2023-04-23T20:08:03.926Z,22.90
2023-04-23T20:10:31.224Z,27.80
2023-04-23T20:12:59.348Z,23.80
2023-04-23T20:15:26.443Z,23.80
2023-04-23T20:17:53.247Z,20.60
2023-04-23T20:20:21.157Z,27.30
2023-04-23T20:22:47.964Z,19.50
2023-04-23T20:25:14.656Z,21.00
2023-04-23T20:27:41.438Z,19.50
2023-04-23T20:30:08.909Z,16.30
2023-04-23T20:32:36.799Z,18.40
2023-04-23T20:35:03.849Z,19.20
2023-04-23T20:37:30.948Z,20.70
2023-04-23T20:39:57.902Z,20.40
2023-04-23T20:42:25.169Z,17.10
2023-04-23T20:44:52.019Z,16.50
2023-04-23T20:47:18.878Z,31.60
2023-04-23T20:49:45.662Z,19.80
2023-04-23T20:52:14.003Z,15.60
2023-04-23T20:54:41.570Z,19.00
2023-04-23T20:57:08.258Z,14.50
2023-04-23T20:59:34.922Z,22.40
2023-04-23T21:02:01.753Z,19.00
2023-04-23T21:04:29.017Z,20.80
2023-04-23T21:06:56.318Z,17.10
2023-04-23T21:09:23.102Z,22.10
2023-04-23T21:11:50.693Z,29.30
2023-04-23T21:14:17.367Z,24.50
2023-04-23T21:16:44.016Z,29.40
2023-04-23T21:19:10.766Z,33.80
2023-04-23T21:21:37.589Z,23.40
2023-04-23T21:24:04.368Z,28.60
2023-04-23T21:26:32.062Z,40.50
2023-04-23T21:28:58.838Z,42.70
2023-04-23T21:31:36.638Z,38.80
2023-04-23T21:34:03.399Z,39.70
2023-04-23T21:36:30.208Z,44.10
2023-04-23T21:38:57.073Z,52.20
2023-04-23T21:41:23.872Z,46.40
2023-04-23T21:43:50.596Z,52.40
2023-04-23T21:46:17.270Z,54.90
2023-04-23T21:48:48.590Z,55.40
2023-04-23T21:51:15.417Z,50.90
2023-04-23T21:53:42.200Z,46.60
2023-04-23T21:56:08.965Z,44.00
2023-04-23T21:58:36.825Z,53.30
2023-04-23T22:01:03.528Z,60.40
2023-04-23T22:03:35.636Z,50.20
2023-04-23T22:06:05.335Z,46.40
2023-04-23T22:08:37.337Z,41.50
2023-04-23T22:11:05.048Z,43.00
2023-04-23T22:13:32.262Z,42.40
2023-04-23T22:15:59.155Z,35.20
2023-04-23T22:18:26.196Z,34.10
2023-04-23T22:20:53.112Z,37.80
2023-04-23T22:23:21.236Z,29.80
2023-04-23T22:25:47.990Z,38.80
2023-04-23T22:28:14.802Z,34.60
2023-04-23T22:30:42.096Z,37.50
2023-04-23T22:33:08.874Z,29.50
2023-04-23T22:35:35.501Z,35.20
2023-04-23T22:38:02.221Z,44.80
2023-04-23T22:40:28.976Z,38.20
2023-04-23T22:42:55.702Z,36.10
2023-04-23T22:45:22.376Z,33.20
2023-04-23T22:47:49.180Z,33.00
2023-04-23T22:50:16.151Z,29.80
2023-04-23T22:52:43.144Z,36.40
2023-04-23T22:55:10.023Z,36.70
2023-04-23T22:57:36.988Z,34.10
2023-04-23T23:00:06.947Z,36.60
2023-04-23T23:02:33.803Z,32.60
2023-04-23T23:05:00.691Z,36.50
2023-04-23T23:07:27.472Z,32.50
2023-04-23T23:09:54.235Z,37.20
2023-04-23T23:12:20.924Z,38.30
2023-04-23T23:14:47.596Z,32.90
2023-04-23T23:17:14.280Z,37.80
2023-04-23T23:19:41.230Z,41.30
2023-04-23T23:22:08.528Z,31.50
2023-04-23T23:24:35.300Z,34.60
2023-04-23T23:27:02.012Z,31.50
2023-04-23T23:29:28.748Z,30.60
2023-04-23T23:31:56.932Z,29.90
2023-04-23T23:34:23.668Z,35.90
2023-04-23T23:36:51.294Z,36.80
2023-04-23T23:39:19.462Z,29.40
2023-04-23T23:41:46.648Z,38.20
2023-04-23T23:44:13.508Z,36.50
2023-04-23T23:46:40.610Z,41.30
2023-04-23T23:49:10.388Z,35.30
2023-04-23T23:51:37.194Z,32.10
2023-04-23T23:54:03.848Z,34.60
2023-04-23T23:56:30.561Z,35.40
2023-04-23T23:58:57.276Z,35.60
